createdAt,value
2023-06-07T00:01:18.673Z,2.20
2023-06-07T00:06:22.409Z,2.50
2023-06-07T00:11:25.305Z,2.10
2023-06-07T00:16:28.538Z,2.70
2023-06-07T00:21:31.618Z,2.50
2023-06-07T00:26:34.615Z,2.80
2023-06-07T00:31:38.126Z,2.50
2023-06-07T00:36:41.297Z,2.30
2023-06-07T00:41:44.405Z,3.00
2023-06-07T00:46:47.581Z,2.70
2023-06-07T00:51:51.533Z,2.60
2023-06-07T00:56:54.677Z,2.90
2023-06-07T01:01:58.948Z,3.20
2023-06-07T01:07:05.588Z,3.60
2023-06-07T01:12:16.181Z,3.50
2023-06-07T01:17:25.703Z,3.30
2023-06-07T01:22:34.083Z,3.50
2023-06-07T01:27:41.328Z,3.40
2023-06-07T01:32:45.482Z,3.70
2023-06-07T01:37:49.787Z,3.50
2023-06-07T01:42:55.201Z,3.80
2023-06-07T01:47:58.687Z,3.60
2023-06-07T01:53:01.688Z,3.20
2023-06-07T01:58:37.714Z,3.50
2023-06-07T02:03:46.712Z,3.70
2023-06-07T02:08:56.194Z,3.60
2023-06-07T02:14:00.488Z,3.70
2023-06-07T02:19:08.391Z,3.30
2023-06-07T02:24:12.369Z,3.40
2023-06-07T02:29:15.847Z,3.50
2023-06-07T02:34:18.778Z,3.70
2023-06-07T02:39:22.650Z,3.90
2023-06-07T02:44:25.732Z,3.50
2023-06-07T02:49:28.637Z,3.80
2023-06-07T02:54:31.708Z,3.60
2023-06-07T02:59:35.014Z,3.70
2023-06-07T03:04:39.694Z,3.80
2023-06-07T03:09:42.882Z,3.80
2023-06-07T03:14:46.165Z,3.80
2023-06-07T03:19:49.941Z,3.80
2023-06-07T03:24:55.390Z,3.70
2023-06-07T03:29:58.454Z,4.00
2023-06-07T03:35:01.457Z,3.40
2023-06-07T03:40:05.489Z,4.00
2023-06-07T03:45:09.471Z,3.90
2023-06-07T03:50:12.610Z,4.00
2023-06-07T03:55:16.228Z,4.10
2023-06-07T04:00:19.655Z,4.70
2023-06-07T04:05:25.807Z,3.90
2023-06-07T04:10:28.687Z,4.10
2023-06-07T04:15:31.711Z,3.90
2023-06-07T04:20:34.637Z,3.90
2023-06-07T04:25:37.573Z,4.20
2023-06-07T04:30:43.871Z,4.10
2023-06-07T04:35:47.665Z,4.00
2023-06-07T04:40:51.617Z,3.70
2023-06-07T04:45:58.254Z,3.70
2023-06-07T04:51:06.942Z,4.20
2023-06-07T04:56:11.162Z,3.90
2023-06-07T05:01:14.736Z,4.60
2023-06-07T05:06:18.678Z,3.40
2023-06-07T05:11:21.681Z,3.90
2023-06-07T05:16:25.942Z,3.90
2023-06-07T05:21:29.300Z,3.80
2023-06-07T05:26:32.266Z,4.00
2023-06-07T05:31:35.325Z,3.80
2023-06-07T05:36:38.276Z,3.50
2023-06-07T05:41:41.364Z,3.70
2023-06-07T05:46:44.292Z,3.90
2023-06-07T05:51:47.337Z,3.20
2023-06-07T05:56:53.496Z,3.40
2023-06-07T06:01:57.466Z,3.10
2023-06-07T06:07:01.880Z,3.20
2023-06-07T06:12:07.741Z,3.60
2023-06-07T06:17:13.107Z,5.00
2023-06-07T06:22:16.102Z,6.00
2023-06-07T06:27:21.990Z,3.90
2023-06-07T06:32:25.301Z,3.50
2023-06-07T06:37:28.588Z,3.60
2023-06-07T06:42:31.954Z,3.70
2023-06-07T06:47:37.419Z,2.90
2023-06-07T06:52:42.781Z,3.30
2023-06-07T06:57:45.821Z,3.30
2023-06-07T07:02:49.152Z,3.00
2023-06-07T07:07:52.419Z,3.40
2023-06-07T07:12:55.746Z,2.90
2023-06-07T07:17:58.835Z,2.80
2023-06-07T07:23:03.317Z,2.70
2023-06-07T07:28:06.620Z,3.50
2023-06-07T07:33:09.597Z,2.90
2023-06-07T07:38:17.188Z,2.80
2023-06-07T07:43:20.162Z,2.80
2023-06-07T07:48:23.384Z,2.60
2023-06-07T07:53:26.381Z,2.90
2023-06-07T07:58:29.269Z,2.40
2023-06-07T08:03:33.892Z,2.50
2023-06-07T08:08:38.581Z,2.40
2023-06-07T08:13:41.655Z,1.90
2023-06-07T08:18:46.776Z,2.20
2023-06-07T08:23:50.820Z,2.00
2023-06-07T08:28:54.001Z,1.70
2023-06-07T08:33:57.050Z,2.10
2023-06-07T08:39:00.110Z,1.90
2023-06-07T08:44:04.326Z,2.30
2023-06-07T08:49:09.570Z,2.00
2023-06-07T08:54:19.495Z,2.20
2023-06-07T08:59:28.284Z,1.90
2023-06-07T09:04:31.800Z,2.00
2023-06-07T09:09:36.662Z,2.20
2023-06-07T09:14:41.423Z,2.60
2023-06-07T09:19:44.780Z,2.10
2023-06-07T09:24:47.878Z,2.10
2023-06-07T09:29:51.071Z,2.30
2023-06-07T09:35:14.190Z,2.50
2023-06-07T09:40:20.222Z,2.40
2023-06-07T09:45:25.185Z,2.20
2023-06-07T09:50:29.523Z,2.30
2023-06-07T09:55:33.499Z,2.10
2023-06-07T10:00:44.514Z,2.20
2023-06-07T10:05:48.341Z,2.20
2023-06-07T10:10:53.777Z,2.30
2023-06-07T10:15:57.384Z,2.00
2023-06-07T10:21:14.936Z,1.90
2023-06-07T10:26:30.287Z,2.30
2023-06-07T10:31:40.984Z,2.30
2023-06-07T10:36:44.002Z,2.30
2023-06-07T10:41:47.163Z,2.00
2023-06-07T10:46:52.259Z,2.40
2023-06-07T10:52:00.538Z,2.10
2023-06-07T10:57:04.405Z,2.60
2023-06-07T11:02:25.240Z,2.50
2023-06-07T11:07:33.054Z,2.70
2023-06-07T11:12:36.777Z,2.20
2023-06-07T11:18:13.500Z,2.20
2023-06-07T11:23:29.997Z,2.30
2023-06-07T11:28:39.149Z,2.40
2023-06-07T11:33:44.397Z,2.40
2023-06-07T11:38:53.405Z,2.20
2023-06-07T11:43:57.894Z,2.50
2023-06-07T11:49:09.082Z,2.10
2023-06-07T11:54:12.419Z,2.00
2023-06-07T11:59:16.940Z,1.90
2023-06-07T12:04:22.826Z,2.30
2023-06-07T12:09:28.110Z,2.60
2023-06-07T12:14:35.327Z,2.50
2023-06-07T12:19:38.628Z,2.90
2023-06-07T12:24:42.075Z,2.30
2023-06-07T12:29:54.624Z,2.10
2023-06-07T12:35:03.806Z,2.30
2023-06-07T12:40:10.266Z,2.10
2023-06-07T12:45:14.046Z,2.20
2023-06-07T12:50:18.092Z,2.80
2023-06-07T12:55:22.533Z,3.10
2023-06-07T13:00:25.770Z,2.70
2023-06-07T13:05:30.040Z,2.40
2023-06-07T13:10:33.305Z,2.80
2023-06-07T13:15:37.499Z,2.50
2023-06-07T13:20:40.840Z,2.20
2023-06-07T13:25:44.410Z,2.60
2023-06-07T13:30:47.429Z,2.70
2023-06-07T13:35:52.009Z,2.30
2023-06-07T13:40:58.939Z,2.60
2023-06-07T13:46:05.345Z,2.40
2023-06-07T13:51:13.632Z,3.00
2023-06-07T13:56:18.119Z,2.40
2023-06-07T14:01:22.327Z,2.70
2023-06-07T14:06:28.681Z,2.10
2023-06-07T14:11:32.420Z,2.60
2023-06-07T14:16:35.813Z,2.30
2023-06-07T14:21:39.290Z,2.50
2023-06-07T14:26:42.318Z,2.30
2023-06-07T14:31:45.332Z,2.80
2023-06-07T14:36:48.308Z,2.40
2023-06-07T14:41:51.322Z,2.60
2023-06-07T14:46:54.246Z,2.20
2023-06-07T14:51:57.257Z,2.80
2023-06-07T14:57:00.185Z,2.40
2023-06-07T15:02:03.383Z,2.60
2023-06-07T15:07:07.360Z,2.80
2023-06-07T15:12:11.646Z,2.40
2023-06-07T15:17:14.566Z,2.30
2023-06-07T15:22:17.545Z,2.50
2023-06-07T15:27:20.673Z,4.00
2023-06-07T15:32:23.788Z,2.50
2023-06-07T15:37:26.908Z,2.40
2023-06-07T15:42:29.974Z,2.60
2023-06-07T15:47:33.026Z,2.80
2023-06-07T15:52:36.030Z,2.80
2023-06-07T15:57:38.882Z,2.50
2023-06-07T16:02:41.855Z,2.60
2023-06-07T16:07:44.831Z,2.10
2023-06-07T16:12:48.814Z,3.00
2023-06-07T16:17:53.650Z,3.20
2023-06-07T16:22:56.761Z,2.50
2023-06-07T16:27:59.811Z,2.90
2023-06-07T16:33:04.134Z,2.30
2023-06-07T16:38:07.405Z,2.40
2023-06-07T16:43:10.414Z,2.10
2023-06-07T16:48:13.623Z,2.70
2023-06-07T16:53:16.681Z,2.30
2023-06-07T16:58:19.788Z,2.70
2023-06-07T17:03:22.787Z,2.70
2023-06-07T17:08:25.890Z,2.50
2023-06-07T17:13:28.834Z,2.60
2023-06-07T17:18:31.888Z,2.50
2023-06-07T17:23:34.978Z,3.10
2023-06-07T17:28:38.121Z,2.50
2023-06-07T17:33:43.011Z,2.90
2023-06-07T17:38:49.698Z,2.70
2023-06-07T17:43:52.988Z,2.60
2023-06-07T17:48:56.165Z,2.70
2023-06-07T17:54:02.391Z,2.60
2023-06-07T17:59:05.503Z,2.20
2023-06-07T18:04:11.436Z,3.00
2023-06-07T18:09:14.564Z,2.80
2023-06-07T18:14:18.666Z,2.10
2023-06-07T18:19:21.867Z,2.20
2023-06-07T18:24:25.659Z,2.20
2023-06-07T18:29:31.010Z,2.10
2023-06-07T18:34:35.300Z,2.90
2023-06-07T18:39:38.611Z,2.10
2023-06-07T18:44:43.845Z,2.30
2023-06-07T18:49:49.728Z,2.20
2023-06-07T18:54:53.501Z,2.40
2023-06-07T18:59:56.494Z,2.70
2023-06-07T19:04:59.844Z,2.50
2023-06-07T19:10:03.682Z,2.00
2023-06-07T19:15:11.111Z,2.50
2023-06-07T19:20:14.783Z,2.60
2023-06-07T19:25:18.247Z,2.80
2023-06-07T19:30:24.535Z,2.90
2023-06-07T19:35:29.875Z,2.60
2023-06-07T19:40:33.498Z,2.80
2023-06-07T19:45:42.757Z,3.30
2023-06-07T19:50:47.077Z,3.80
2023-06-07T19:55:55.439Z,3.20
2023-06-07T20:00:59.189Z,2.90
2023-06-07T20:06:03.326Z,3.10
2023-06-07T20:11:06.534Z,3.00
2023-06-07T20:16:12.653Z,2.90
2023-06-07T20:21:16.137Z,3.30
2023-06-07T20:26:19.194Z,3.20
2023-06-07T20:31:22.698Z,3.00
2023-06-07T20:36:27.364Z,3.20
2023-06-07T20:41:30.425Z,3.10
2023-06-07T20:46:33.982Z,4.10
2023-06-07T20:51:38.505Z,3.00
2023-06-07T20:56:41.646Z,3.60
2023-06-07T21:01:44.924Z,3.50
2023-06-07T21:06:48.274Z,4.50
2023-06-07T21:11:51.550Z,3.60
2023-06-07T21:16:54.758Z,4.40
2023-06-07T21:21:57.988Z,5.20
2023-06-07T21:27:01.463Z,4.50
2023-06-07T21:32:05.330Z,4.40
2023-06-07T21:37:14.667Z,4.50
2023-06-07T21:42:20.835Z,4.10
2023-06-07T21:47:23.965Z,4.90
2023-06-07T21:52:28.496Z,4.90
2023-06-07T21:57:32.477Z,4.80
2023-06-07T22:02:36.025Z,4.30
2023-06-07T22:07:40.243Z,4.00
2023-06-07T22:12:43.524Z,3.80
2023-06-07T22:17:48.995Z,12.50
2023-06-07T22:22:54.634Z,10.50
2023-06-07T22:27:59.235Z,4.30
2023-06-07T22:33:05.987Z,4.20
2023-06-07T22:38:13.599Z,4.10
2023-06-07T22:43:17.194Z,5.80
2023-06-07T22:48:21.561Z,6.80
2023-06-07T22:53:25.326Z,18.80
2023-06-07T22:58:28.360Z,8.30
2023-06-07T23:03:32.027Z,5.20
2023-06-07T23:08:35.261Z,6.00
2023-06-07T23:13:38.392Z,6.70
2023-06-07T23:18:41.921Z,5.70
2023-06-07T23:23:50.892Z,6.40
2023-06-07T23:28:54.098Z,7.90
2023-06-07T23:33:57.080Z,12.50
2023-06-07T23:39:00.173Z,7.60
2023-06-07T23:44:03.341Z,4.60
2023-06-07T23:49:07.007Z,5.20
2023-06-07T23:54:12.981Z,6.10
2023-06-07T23:59:16.348Z,5.30
